sensor_id;sensor_type;location;lat;lon;timestamp;temperature;humidity
43087;DHT22;28708;52.224;6.924;2023-04-27T00:01:49;4.60;99.90
43087;DHT22;28708;52.224;6.924;2023-04-27T00:04:14;4.60;99.90
43087;DHT22;28708;52.224;6.924;2023-04-27T00:06:41;4.60;99.90
43087;DHT22;28708;52.224;6.924;2023-04-27T00:09:07;4.60;99.90
43087;DHT22;28708;52.224;6.924;2023-04-27T00:11:33;4.60;99.90
43087;DHT22;28708;52.224;6.924;2023-04-27T00:13:59;4.60;99.90
43087;DHT22;28708;52.224;6.924;2023-04-27T00:16:25;4.60;99.90
43087;DHT22;28708;52.224;6.924;2023-04-27T00:18:51;4.50;99.90
43087;DHT22;28708;52.224;6.924;2023-04-27T00:21:18;4.50;99.90
43087;DHT22;28708;52.224;6.924;2023-04-27T00:23:44;4.40;99.90
43087;DHT22;28708;52.224;6.924;2023-04-27T00:26:10;4.30;99.90
43087;DHT22;28708;52.224;6.924;2023-04-27T00:28:37;4.20;99.90
43087;DHT22;28708;52.224;6.924;2023-04-27T00:31:03;4.10;99.90
43087;DHT22;28708;52.224;6.924;2023-04-27T00:33:29;4.10;99.90
43087;DHT22;28708;52.224;6.924;2023-04-27T00:35:59;4.20;99.90
43087;DHT22;28708;52.224;6.924;2023-04-27T00:38:26;4.30;99.90
43087;DHT22;28708;52.224;6.924;2023-04-27T00:41:02;4.30;99.90
43087;DHT22;28708;52.224;6.924;2023-04-27T00:43:28;4.30;99.90
43087;DHT22;28708;52.224;6.924;2023-04-27T00:45:54;4.30;99.90
43087;DHT22;28708;52.224;6.924;2023-04-27T00:48:20;4.30;99.90
43087;DHT22;28708;52.224;6.924;2023-04-27T00:50:46;4.20;99.90
43087;DHT22;28708;52.224;6.924;2023-04-27T00:53:12;4.20;99.90
43087;DHT22;28708;52.224;6.924;2023-04-27T00:55:41;4.10;99.90
43087;DHT22;28708;52.224;6.924;2023-04-27T00:58:07;4.10;99.90
43087;DHT22;28708;52.224;6.924;2023-04-27T01:00:35;4.00;99.90
43087;DHT22;28708;52.224;6.924;2023-04-27T01:03:01;3.90;99.90
43087;DHT22;28708;52.224;6.924;2023-04-27T01:05:28;3.80;99.90
43087;DHT22;28708;52.224;6.924;2023-04-27T01:07:54;3.90;99.90
43087;DHT22;28708;52.224;6.924;2023-04-27T01:10:20;3.90;99.90
43087;DHT22;28708;52.224;6.924;2023-04-27T01:12:45;3.90;99.90
43087;DHT22;28708;52.224;6.924;2023-04-27T01:15:11;3.90;99.90
43087;DHT22;28708;52.224;6.924;2023-04-27T01:17:38;4.00;99.90
43087;DHT22;28708;52.224;6.924;2023-04-27T01:20:04;4.10;99.90
43087;DHT22;28708;52.224;6.924;2023-04-27T01:22:35;4.10;99.90
43087;DHT22;28708;52.224;6.924;2023-04-27T01:25:01;4.00;99.90
43087;DHT22;28708;52.224;6.924;2023-04-27T01:27:29;4.00;99.90
43087;DHT22;28708;52.224;6.924;2023-04-27T01:29:58;4.10;99.90
43087;DHT22;28708;52.224;6.924;2023-04-27T01:32:23;4.00;99.90
43087;DHT22;28708;52.224;6.924;2023-04-27T01:34:51;3.90;99.90
43087;DHT22;28708;52.224;6.924;2023-04-27T01:37:16;3.90;99.90
43087;DHT22;28708;52.224;6.924;2023-04-27T01:39:42;3.90;99.90
43087;DHT22;28708;52.224;6.924;2023-04-27T01:42:08;3.80;99.90
43087;DHT22;28708;52.224;6.924;2023-04-27T01:44:33;3.80;99.90
43087;DHT22;28708;52.224;6.924;2023-04-27T01:46:59;3.80;99.90
43087;DHT22;28708;52.224;6.924;2023-04-27T01:49:25;3.80;99.90
43087;DHT22;28708;52.224;6.924;2023-04-27T01:51:50;3.80;99.90
43087;DHT22;28708;52.224;6.924;2023-04-27T01:54:16;3.80;99.90
43087;DHT22;28708;52.224;6.924;2023-04-27T01:56:42;3.80;99.90
43087;DHT22;28708;52.224;6.924;2023-04-27T01:59:08;3.80;99.90
43087;DHT22;28708;52.224;6.924;2023-04-27T02:01:34;3.70;99.90
43087;DHT22;28708;52.224;6.924;2023-04-27T02:04:00;3.70;99.90
43087;DHT22;28708;52.224;6.924;2023-04-27T02:06:25;3.70;99.90
43087;DHT22;28708;52.224;6.924;2023-04-27T02:08:52;3.60;99.90
43087;DHT22;28708;52.224;6.924;2023-04-27T02:11:17;3.50;99.90
43087;DHT22;28708;52.224;6.924;2023-04-27T02:13:43;3.60;99.90
43087;DHT22;28708;52.224;6.924;2023-04-27T02:16:09;3.60;99.90
43087;DHT22;28708;52.224;6.924;2023-04-27T02:18:34;3.60;99.90
43087;DHT22;28708;52.224;6.924;2023-04-27T02:21:01;3.60;99.90
43087;DHT22;28708;52.224;6.924;2023-04-27T02:23:32;3.60;99.90
43087;DHT22;28708;52.224;6.924;2023-04-27T02:26:00;3.50;99.90
43087;DHT22;28708;52.224;6.924;2023-04-27T02:28:26;3.50;99.90
43087;DHT22;28708;52.224;6.924;2023-04-27T02:30:52;3.50;99.90
43087;DHT22;28708;52.224;6.924;2023-04-27T02:33:18;3.50;99.90
43087;DHT22;28708;52.224;6.924;2023-04-27T02:35:43;3.40;99.90
43087;DHT22;28708;52.224;6.924;2023-04-27T02:38:09;3.40;99.90
43087;DHT22;28708;52.224;6.924;2023-04-27T02:40:36;3.40;99.90
43087;DHT22;28708;52.224;6.924;2023-04-27T02:43:05;3.40;99.90
43087;DHT22;28708;52.224;6.924;2023-04-27T02:45:30;3.40;99.90
43087;DHT22;28708;52.224;6.924;2023-04-27T02:47:57;3.40;99.90
43087;DHT22;28708;52.224;6.924;2023-04-27T02:50:22;3.30;99.90
43087;DHT22;28708;52.224;6.924;2023-04-27T02:52:48;3.30;99.90
43087;DHT22;28708;52.224;6.924;2023-04-27T02:55:14;3.30;99.90
43087;DHT22;28708;52.224;6.924;2023-04-27T02:57:39;3.30;99.90
43087;DHT22;28708;52.224;6.924;2023-04-27T03:00:06;3.20;99.90
43087;DHT22;28708;52.224;6.924;2023-04-27T03:02:33;3.10;99.90
43087;DHT22;28708;52.224;6.924;2023-04-27T03:04:59;3.20;99.90
43087;DHT22;28708;52.224;6.924;2023-04-27T03:07:25;3.10;99.90
43087;DHT22;28708;52.224;6.924;2023-04-27T03:09:51;3.10;99.90
43087;DHT22;28708;52.224;6.924;2023-04-27T03:12:16;3.10;99.90
43087;DHT22;28708;52.224;6.924;2023-04-27T03:14:42;2.90;99.90
43087;DHT22;28708;52.224;6.924;2023-04-27T03:17:07;2.80;99.90
43087;DHT22;28708;52.224;6.924;2023-04-27T03:19:33;2.80;99.90
43087;DHT22;28708;52.224;6.924;2023-04-27T03:21:59;3.00;99.90
43087;DHT22;28708;52.224;6.924;2023-04-27T03:24:24;3.00;99.90
43087;DHT22;28708;52.224;6.924;2023-04-27T03:26:50;3.00;99.90
43087;DHT22;28708;52.224;6.924;2023-04-27T03:29:17;2.90;99.90
43087;DHT22;28708;52.224;6.924;2023-04-27T03:31:43;2.80;99.90
43087;DHT22;28708;52.224;6.924;2023-04-27T03:34:08;2.90;99.90
43087;DHT22;28708;52.224;6.924;2023-04-27T03:36:37;2.80;99.90
43087;DHT22;28708;52.224;6.924;2023-04-27T03:39:02;2.80;99.90
43087;DHT22;28708;52.224;6.924;2023-04-27T03:41:28;2.80;99.90
43087;DHT22;28708;52.224;6.924;2023-04-27T03:43:53;2.80;99.90
43087;DHT22;28708;52.224;6.924;2023-04-27T03:46:19;2.70;99.90
43087;DHT22;28708;52.224;6.924;2023-04-27T03:48:45;2.80;99.90
43087;DHT22;28708;52.224;6.924;2023-04-27T03:51:12;2.80;99.90
43087;DHT22;28708;52.224;6.924;2023-04-27T03:53:38;2.60;99.90
43087;DHT22;28708;52.224;6.924;2023-04-27T03:56:05;2.60;99.90
43087;DHT22;28708;52.224;6.924;2023-04-27T03:58:31;2.70;99.90
43087;DHT22;28708;52.224;6.924;2023-04-27T04:01:12;2.70;99.90
43087;DHT22;28708;52.224;6.924;2023-04-27T04:03:39;2.80;99.90
43087;DHT22;28708;52.224;6.924;2023-04-27T04:06:06;2.60;99.90
43087;DHT22;28708;52.224;6.924;2023-04-27T04:08:32;2.60;99.90
43087;DHT22;28708;52.224;6.924;2023-04-27T04:10:59;2.60;99.90
43087;DHT22;28708;52.224;6.924;2023-04-27T04:13:25;2.60;99.90
43087;DHT22;28708;52.224;6.924;2023-04-27T04:16:06;2.70;99.90
43087;DHT22;28708;52.224;6.924;2023-04-27T04:18:32;2.60;99.90
43087;DHT22;28708;52.224;6.924;2023-04-27T04:20:58;2.60;99.90
43087;DHT22;28708;52.224;6.924;2023-04-27T04:23:24;2.70;99.90
43087;DHT22;28708;52.224;6.924;2023-04-27T04:25:51;2.70;99.90
43087;DHT22;28708;52.224;6.924;2023-04-27T04:28:18;2.60;99.90
43087;DHT22;28708;52.224;6.924;2023-04-27T04:30:44;2.60;99.90
43087;DHT22;28708;52.224;6.924;2023-04-27T04:33:10;2.60;99.90
43087;DHT22;28708;52.224;6.924;2023-04-27T04:35:39;2.50;99.90
43087;DHT22;28708;52.224;6.924;2023-04-27T04:38:07;2.60;99.90
43087;DHT22;28708;52.224;6.924;2023-04-27T04:40:33;2.50;99.90
43087;DHT22;28708;52.224;6.924;2023-04-27T04:42:59;2.40;99.90
43087;DHT22;28708;52.224;6.924;2023-04-27T04:45:25;2.20;99.90
43087;DHT22;28708;52.224;6.924;2023-04-27T04:47:51;2.20;99.90
43087;DHT22;28708;52.224;6.924;2023-04-27T04:50:18;2.20;99.90
43087;DHT22;28708;52.224;6.924;2023-04-27T04:52:44;2.30;99.90
43087;DHT22;28708;52.224;6.924;2023-04-27T04:55:10;2.40;99.90
43087;DHT22;28708;52.224;6.924;2023-04-27T04:57:36;2.60;99.90
43087;DHT22;28708;52.224;6.924;2023-04-27T05:00:03;2.70;99.90
43087;DHT22;28708;52.224;6.924;2023-04-27T05:02:32;2.60;99.90
43087;DHT22;28708;52.224;6.924;2023-04-27T05:04:57;2.60;99.90
43087;DHT22;28708;52.224;6.924;2023-04-27T05:07:23;2.50;99.90
43087;DHT22;28708;52.224;6.924;2023-04-27T05:09:49;2.40;99.90
43087;DHT22;28708;52.224;6.924;2023-04-27T05:12:14;2.50;99.90
43087;DHT22;28708;52.224;6.924;2023-04-27T05:14:40;2.50;99.90
43087;DHT22;28708;52.224;6.924;2023-04-27T05:17:05;2.70;99.90
43087;DHT22;28708;52.224;6.924;2023-04-27T05:19:32;2.70;99.90
43087;DHT22;28708;52.224;6.924;2023-04-27T05:21:58;3.00;99.90
43087;DHT22;28708;52.224;6.924;2023-04-27T05:24:24;3.20;99.90
43087;DHT22;28708;52.224;6.924;2023-04-27T05:26:50;3.20;99.90
43087;DHT22;28708;52.224;6.924;2023-04-27T05:29:16;3.30;99.90
43087;DHT22;28708;52.224;6.924;2023-04-27T05:31:41;3.30;99.90
43087;DHT22;28708;52.224;6.924;2023-04-27T05:34:07;3.40;99.90
43087;DHT22;28708;52.224;6.924;2023-04-27T05:36:34;3.60;99.90
43087;DHT22;28708;52.224;6.924;2023-04-27T05:39:01;3.70;99.90
43087;DHT22;28708;52.224;6.924;2023-04-27T05:41:26;3.80;99.90
43087;DHT22;28708;52.224;6.924;2023-04-27T05:43:52;4.00;99.90
43087;DHT22;28708;52.224;6.924;2023-04-27T05:46:18;4.10;99.90
43087;DHT22;28708;52.224;6.924;2023-04-27T05:48:45;4.10;99.90
43087;DHT22;28708;52.224;6.924;2023-04-27T05:51:11;4.20;99.90
43087;DHT22;28708;52.224;6.924;2023-04-27T05:53:36;4.30;99.90
43087;DHT22;28708;52.224;6.924;2023-04-27T05:56:02;4.40;99.90
43087;DHT22;28708;52.224;6.924;2023-04-27T05:58:34;4.40;99.90
43087;DHT22;28708;52.224;6.924;2023-04-27T06:01:00;4.60;99.90
43087;DHT22;28708;52.224;6.924;2023-04-27T06:03:26;4.60;99.90
43087;DHT22;28708;52.224;6.924;2023-04-27T06:05:55;4.60;99.90
43087;DHT22;28708;52.224;6.924;2023-04-27T06:08:21;4.70;99.90
43087;DHT22;28708;52.224;6.924;2023-04-27T06:10:47;4.80;99.90
43087;DHT22;28708;52.224;6.924;2023-04-27T06:13:13;4.90;99.90
43087;DHT22;28708;52.224;6.924;2023-04-27T06:15:38;5.10;99.90
43087;DHT22;28708;52.224;6.924;2023-04-27T06:18:04;5.20;99.90
43087;DHT22;28708;52.224;6.924;2023-04-27T06:20:30;5.30;99.90
43087;DHT22;28708;52.224;6.924;2023-04-27T06:22:57;5.40;99.90
43087;DHT22;28708;52.224;6.924;2023-04-27T06:25:23;5.40;99.90
43087;DHT22;28708;52.224;6.924;2023-04-27T06:27:48;5.50;99.90
43087;DHT22;28708;52.224;6.924;2023-04-27T06:30:15;5.70;99.90
43087;DHT22;28708;52.224;6.924;2023-04-27T06:32:41;5.70;99.90
43087;DHT22;28708;52.224;6.924;2023-04-27T06:35:07;5.70;99.90
43087;DHT22;28708;52.224;6.924;2023-04-27T06:37:32;5.80;99.90
43087;DHT22;28708;52.224;6.924;2023-04-27T06:39:58;6.00;99.90
43087;DHT22;28708;52.224;6.924;2023-04-27T06:42:23;6.00;99.90
43087;DHT22;28708;52.224;6.924;2023-04-27T06:44:53;6.10;99.90
43087;DHT22;28708;52.224;6.924;2023-04-27T06:47:19;6.10;99.90
43087;DHT22;28708;52.224;6.924;2023-04-27T06:49:45;6.10;99.90
43087;DHT22;28708;52.224;6.924;2023-04-27T06:52:11;6.10;99.90
43087;DHT22;28708;52.224;6.924;2023-04-27T06:54:36;6.30;99.90
43087;DHT22;28708;52.224;6.924;2023-04-27T06:57:02;6.50;99.90
43087;DHT22;28708;52.224;6.924;2023-04-27T06:59:28;6.50;99.90
43087;DHT22;28708;52.224;6.924;2023-04-27T07:01:53;6.50;99.90
43087;DHT22;28708;52.224;6.924;2023-04-27T07:04:19;6.50;99.90
43087;DHT22;28708;52.224;6.924;2023-04-27T07:06:44;6.60;99.90
43087;DHT22;28708;52.224;6.924;2023-04-27T07:09:10;6.70;99.90
43087;DHT22;28708;52.224;6.924;2023-04-27T07:11:36;6.80;99.90
43087;DHT22;28708;52.224;6.924;2023-04-27T07:14:02;6.80;99.90
43087;DHT22;28708;52.224;6.924;2023-04-27T07:16:27;6.90;99.90
43087;DHT22;28708;52.224;6.924;2023-04-27T07:18:53;7.00;99.90
43087;DHT22;28708;52.224;6.924;2023-04-27T07:21:18;7.20;99.90
43087;DHT22;28708;52.224;6.924;2023-04-27T07:23:44;7.20;99.90
43087;DHT22;28708;52.224;6.924;2023-04-27T07:26:11;7.20;99.90
43087;DHT22;28708;52.224;6.924;2023-04-27T07:28:37;7.20;99.90
43087;DHT22;28708;52.224;6.924;2023-04-27T07:31:04;7.40;99.90
43087;DHT22;28708;52.224;6.924;2023-04-27T07:33:31;7.50;99.90
43087;DHT22;28708;52.224;6.924;2023-04-27T07:35:56;7.50;99.90
43087;DHT22;28708;52.224;6.924;2023-04-27T07:38:22;7.60;99.90
43087;DHT22;28708;52.224;6.924;2023-04-27T07:40:48;7.60;99.90
43087;DHT22;28708;52.224;6.924;2023-04-27T07:43:14;7.70;99.90
43087;DHT22;28708;52.224;6.924;2023-04-27T07:45:40;7.90;99.90
43087;DHT22;28708;52.224;6.924;2023-04-27T07:48:07;8.10;99.90
43087;DHT22;28708;52.224;6.924;2023-04-27T07:50:32;8.10;99.90
43087;DHT22;28708;52.224;6.924;2023-04-27T07:52:58;8.10;99.90
43087;DHT22;28708;52.224;6.924;2023-04-27T07:55:25;8.20;99.90
43087;DHT22;28708;52.224;6.924;2023-04-27T07:57:55;8.30;99.90
43087;DHT22;28708;52.224;6.924;2023-04-27T08:00:21;8.10;99.90
43087;DHT22;28708;52.224;6.924;2023-04-27T08:02:47;8.10;99.90
43087;DHT22;28708;52.224;6.924;2023-04-27T08:05:13;8.10;99.90
43087;DHT22;28708;52.224;6.924;2023-04-27T08:07:39;8.30;99.90
43087;DHT22;28708;52.224;6.924;2023-04-27T08:10:06;8.50;99.90
43087;DHT22;28708;52.224;6.924;2023-04-27T08:12:33;8.40;99.90
43087;DHT22;28708;52.224;6.924;2023-04-27T08:14:58;8.40;99.90
43087;DHT22;28708;52.224;6.924;2023-04-27T08:17:24;8.70;99.90
43087;DHT22;28708;52.224;6.924;2023-04-27T08:19:49;8.90;99.90
43087;DHT22;28708;52.224;6.924;2023-04-27T08:22:15;8.80;99.90
43087;DHT22;28708;52.224;6.924;2023-04-27T08:24:41;9.00;99.90
43087;DHT22;28708;52.224;6.924;2023-04-27T08:27:07;8.80;99.90
43087;DHT22;28708;52.224;6.924;2023-04-27T08:29:32;8.90;99.90
43087;DHT22;28708;52.224;6.924;2023-04-27T08:32:00;8.80;99.90
43087;DHT22;28708;52.224;6.924;2023-04-27T08:34:27;9.00;99.90
43087;DHT22;28708;52.224;6.924;2023-04-27T08:36:52;9.30;99.90
43087;DHT22;28708;52.224;6.924;2023-04-27T08:39:22;9.30;99.90
43087;DHT22;28708;52.224;6.924;2023-04-27T08:41:48;9.60;99.90
43087;DHT22;28708;52.224;6.924;2023-04-27T08:44:13;9.50;99.90
43087;DHT22;28708;52.224;6.924;2023-04-27T08:46:40;9.50;99.90
43087;DHT22;28708;52.224;6.924;2023-04-27T08:49:05;10.10;99.90
43087;DHT22;28708;52.224;6.924;2023-04-27T08:51:34;10.80;99.90
43087;DHT22;28708;52.224;6.924;2023-04-27T08:53:59;11.90;99.90
43087;DHT22;28708;52.224;6.924;2023-04-27T08:56:27;12.00;99.90
43087;DHT22;28708;52.224;6.924;2023-04-27T08:58:54;12.70;99.90
43087;DHT22;28708;52.224;6.924;2023-04-27T09:01:21;14.40;99.50
43087;DHT22;28708;52.224;6.924;2023-04-27T09:03:47;13.80;96.40
43087;DHT22;28708;52.224;6.924;2023-04-27T09:06:13;15.10;94.60
43087;DHT22;28708;52.224;6.924;2023-04-27T09:08:49;15.30;91.40
43087;DHT22;28708;52.224;6.924;2023-04-27T09:11:26;15.50;87.00
43087;DHT22;28708;52.224;6.924;2023-04-27T09:13:52;15.40;83.00
43087;DHT22;28708;52.224;6.924;2023-04-27T09:16:22;14.00;83.60
43087;DHT22;28708;52.224;6.924;2023-04-27T09:18:48;13.30;85.80
43087;DHT22;28708;52.224;6.924;2023-04-27T09:21:25;14.30;84.20
43087;DHT22;28708;52.224;6.924;2023-04-27T09:23:51;15.40;77.20
43087;DHT22;28708;52.224;6.924;2023-04-27T09:26:26;16.70;74.90
43087;DHT22;28708;52.224;6.924;2023-04-27T09:28:54;15.50;76.00
43087;DHT22;28708;52.224;6.924;2023-04-27T09:31:30;15.70;72.20
43087;DHT22;28708;52.224;6.924;2023-04-27T09:33:56;15.20;72.80
43087;DHT22;28708;52.224;6.924;2023-04-27T09:36:22;14.80;66.50
43087;DHT22;28708;52.224;6.924;2023-04-27T09:38:50;14.70;74.20
43087;DHT22;28708;52.224;6.924;2023-04-27T09:41:17;16.30;70.40
43087;DHT22;28708;52.224;6.924;2023-04-27T09:43:43;16.60;69.00
43087;DHT22;28708;52.224;6.924;2023-04-27T09:46:14;17.40;68.90
43087;DHT22;28708;52.224;6.924;2023-04-27T09:48:41;18.10;66.20
43087;DHT22;28708;52.224;6.924;2023-04-27T09:51:07;17.90;66.00
43087;DHT22;28708;52.224;6.924;2023-04-27T09:53:53;17.50;65.00
43087;DHT22;28708;52.224;6.924;2023-04-27T10:02:22;18.00;64.80
43087;DHT22;28708;52.224;6.924;2023-04-27T10:05:06;18.20;62.60
43087;DHT22;28708;52.224;6.924;2023-04-27T10:07:36;18.50;62.50
43087;DHT22;28708;52.224;6.924;2023-04-27T10:10:03;18.60;61.30
43087;DHT22;28708;52.224;6.924;2023-04-27T10:12:35;19.00;58.50
43087;DHT22;28708;52.224;6.924;2023-04-27T10:15:15;18.10;59.80
43087;DHT22;28708;52.224;6.924;2023-04-27T10:17:49;17.60;58.30
43087;DHT22;28708;52.224;6.924;2023-04-27T10:20:15;18.00;58.70
43087;DHT22;28708;52.224;6.924;2023-04-27T10:22:48;18.50;60.50
43087;DHT22;28708;52.224;6.924;2023-04-27T10:25:23;19.10;58.90
43087;DHT22;28708;52.224;6.924;2023-04-27T10:27:59;18.30;59.00
43087;DHT22;28708;52.224;6.924;2023-04-27T10:30:34;17.80;59.80
43087;DHT22;28708;52.224;6.924;2023-04-27T10:33:07;17.10;60.60
43087;DHT22;28708;52.224;6.924;2023-04-27T10:35:39;17.10;61.10
43087;DHT22;28708;52.224;6.924;2023-04-27T10:38:28;17.00;62.60
43087;DHT22;28708;52.224;6.924;2023-04-27T10:40:59;16.80;62.60
43087;DHT22;28708;52.224;6.924;2023-04-27T10:43:32;17.30;61.40
43087;DHT22;28708;52.224;6.924;2023-04-27T10:46:14;15.80;64.20
43087;DHT22;28708;52.224;6.924;2023-04-27T10:48:41;14.80;66.70
43087;DHT22;28708;52.224;6.924;2023-04-27T10:51:08;15.80;67.40
43087;DHT22;28708;52.224;6.924;2023-04-27T10:53:34;16.80;64.80
43087;DHT22;28708;52.224;6.924;2023-04-27T10:56:00;17.10;63.40
43087;DHT22;28708;52.224;6.924;2023-04-27T10:58:27;17.10;63.30
43087;DHT22;28708;52.224;6.924;2023-04-27T11:00:52;16.00;64.90
43087;DHT22;28708;52.224;6.924;2023-04-27T11:03:21;15.10;66.70
43087;DHT22;28708;52.224;6.924;2023-04-27T11:05:48;16.30;66.20
43087;DHT22;28708;52.224;6.924;2023-04-27T11:08:22;17.10;63.20
43087;DHT22;28708;52.224;6.924;2023-04-27T11:10:50;17.70;62.80
43087;DHT22;28708;52.224;6.924;2023-04-27T11:13:17;17.10;65.40
43087;DHT22;28708;52.224;6.924;2023-04-27T11:15:54;17.10;63.30
43087;DHT22;28708;52.224;6.924;2023-04-27T11:18:22;17.80;61.40
43087;DHT22;28708;52.224;6.924;2023-04-27T11:20:49;18.40;62.50
43087;DHT22;28708;52.224;6.924;2023-04-27T11:23:23;18.60;62.40
43087;DHT22;28708;52.224;6.924;2023-04-27T11:25:50;18.80;60.00
43087;DHT22;28708;52.224;6.924;2023-04-27T11:28:17;16.90;64.20
43087;DHT22;28708;52.224;6.924;2023-04-27T11:30:43;16.50;63.20
43087;DHT22;28708;52.224;6.924;2023-04-27T11:33:09;15.50;65.00
43087;DHT22;28708;52.224;6.924;2023-04-27T11:35:35;14.90;65.90
43087;DHT22;28708;52.224;6.924;2023-04-27T11:38:01;13.90;68.50
43087;DHT22;28708;52.224;6.924;2023-04-27T11:40:26;13.60;67.40
43087;DHT22;28708;52.224;6.924;2023-04-27T11:43:00;13.40;69.10
43087;DHT22;28708;52.224;6.924;2023-04-27T11:45:28;13.70;71.70
43087;DHT22;28708;52.224;6.924;2023-04-27T11:47:57;14.20;68.00
43087;DHT22;28708;52.224;6.924;2023-04-27T11:50:24;14.20;69.10
43087;DHT22;28708;52.224;6.924;2023-04-27T11:52:51;14.10;67.70
43087;DHT22;28708;52.224;6.924;2023-04-27T11:55:20;13.90;69.30
43087;DHT22;28708;52.224;6.924;2023-04-27T11:57:46;14.00;69.10
43087;DHT22;28708;52.224;6.924;2023-04-27T12:00:12;14.70;67.90
43087;DHT22;28708;52.224;6.924;2023-04-27T12:02:40;14.50;68.60
43087;DHT22;28708;52.224;6.924;2023-04-27T12:05:06;14.70;69.00
43087;DHT22;28708;52.224;6.924;2023-04-27T12:07:33;14.40;67.20
43087;DHT22;28708;52.224;6.924;2023-04-27T12:09:59;14.30;68.20
43087;DHT22;28708;52.224;6.924;2023-04-27T12:12:25;14.50;70.40
43087;DHT22;28708;52.224;6.924;2023-04-27T12:14:51;14.40;66.70
43087;DHT22;28708;52.224;6.924;2023-04-27T12:17:17;14.50;66.40
43087;DHT22;28708;52.224;6.924;2023-04-27T12:19:43;14.50;66.30
43087;DHT22;28708;52.224;6.924;2023-04-27T12:22:09;14.40;66.70
43087;DHT22;28708;52.224;6.924;2023-04-27T12:24:35;13.80;68.30
43087;DHT22;28708;52.224;6.924;2023-04-27T12:27:02;13.90;70.20
43087;DHT22;28708;52.224;6.924;2023-04-27T12:29:29;14.30;68.70
43087;DHT22;28708;52.224;6.924;2023-04-27T12:31:57;14.60;68.80
43087;DHT22;28708;52.224;6.924;2023-04-27T12:34:23;14.40;68.30
43087;DHT22;28708;52.224;6.924;2023-04-27T12:36:49;14.60;68.20
43087;DHT22;28708;52.224;6.924;2023-04-27T12:39:20;14.60;67.50
43087;DHT22;28708;52.224;6.924;2023-04-27T12:41:47;14.70;68.30
43087;DHT22;28708;52.224;6.924;2023-04-27T12:44:13;14.60;66.00
43087;DHT22;28708;52.224;6.924;2023-04-27T12:46:40;14.30;64.40
43087;DHT22;28708;52.224;6.924;2023-04-27T12:49:07;13.70;68.00
43087;DHT22;28708;52.224;6.924;2023-04-27T12:51:34;13.60;70.40
43087;DHT22;28708;52.224;6.924;2023-04-27T12:54:01;13.70;69.60
43087;DHT22;28708;52.224;6.924;2023-04-27T12:56:27;13.60;69.00
43087;DHT22;28708;52.224;6.924;2023-04-27T12:58:53;13.30;69.40
43087;DHT22;28708;52.224;6.924;2023-04-27T13:01:19;13.60;71.40
43087;DHT22;28708;52.224;6.924;2023-04-27T13:03:50;13.80;70.00
43087;DHT22;28708;52.224;6.924;2023-04-27T13:06:16;14.40;66.70
43087;DHT22;28708;52.224;6.924;2023-04-27T13:08:42;14.80;65.00
43087;DHT22;28708;52.224;6.924;2023-04-27T13:11:08;14.40;66.50
43087;DHT22;28708;52.224;6.924;2023-04-27T13:13:34;14.70;66.20
43087;DHT22;28708;52.224;6.924;2023-04-27T13:16:00;14.80;67.50
43087;DHT22;28708;52.224;6.924;2023-04-27T13:18:27;14.90;65.60
43087;DHT22;28708;52.224;6.924;2023-04-27T13:20:55;14.80;65.30
43087;DHT22;28708;52.224;6.924;2023-04-27T13:23:21;15.20;65.50
43087;DHT22;28708;52.224;6.924;2023-04-27T13:25:47;15.30;64.20
43087;DHT22;28708;52.224;6.924;2023-04-27T13:28:14;15.00;64.80
43087;DHT22;28708;52.224;6.924;2023-04-27T13:30:40;14.70;64.50
43087;DHT22;28708;52.224;6.924;2023-04-27T13:33:06;14.40;68.10
43087;DHT22;28708;52.224;6.924;2023-04-27T13:35:31;14.70;68.00
43087;DHT22;28708;52.224;6.924;2023-04-27T13:37:57;14.60;64.70
43087;DHT22;28708;52.224;6.924;2023-04-27T13:40:23;14.70;66.50
43087;DHT22;28708;52.224;6.924;2023-04-27T13:42:48;14.80;64.80
43087;DHT22;28708;52.224;6.924;2023-04-27T13:45:14;15.10;65.50
43087;DHT22;28708;52.224;6.924;2023-04-27T13:47:40;14.90;63.90
43087;DHT22;28708;52.224;6.924;2023-04-27T13:50:07;14.90;63.50
43087;DHT22;28708;52.224;6.924;2023-04-27T13:52:34;14.90;64.60
43087;DHT22;28708;52.224;6.924;2023-04-27T13:55:01;15.10;64.90
43087;DHT22;28708;52.224;6.924;2023-04-27T13:57:27;14.90;66.40
43087;DHT22;28708;52.224;6.924;2023-04-27T13:59:52;15.40;68.10
43087;DHT22;28708;52.224;6.924;2023-04-27T14:02:18;15.80;64.60
43087;DHT22;28708;52.224;6.924;2023-04-27T14:04:44;16.00;65.10
43087;DHT22;28708;52.224;6.924;2023-04-27T14:07:10;15.40;64.10
43087;DHT22;28708;52.224;6.924;2023-04-27T14:09:35;15.20;65.60
43087;DHT22;28708;52.224;6.924;2023-04-27T14:12:01;15.40;64.60
43087;DHT22;28708;52.224;6.924;2023-04-27T14:14:27;15.50;64.60
43087;DHT22;28708;52.224;6.924;2023-04-27T14:16:53;15.00;66.50
43087;DHT22;28708;52.224;6.924;2023-04-27T14:19:19;15.30;67.80
43087;DHT22;28708;52.224;6.924;2023-04-27T14:21:46;15.60;68.70
43087;DHT22;28708;52.224;6.924;2023-04-27T14:24:12;15.20;63.70
43087;DHT22;28708;52.224;6.924;2023-04-27T14:26:37;14.90;64.60
43087;DHT22;28708;52.224;6.924;2023-04-27T14:29:03;14.70;63.10
43087;DHT22;28708;52.224;6.924;2023-04-27T14:31:29;14.40;62.60
43087;DHT22;28708;52.224;6.924;2023-04-27T14:33:55;14.50;64.00
43087;DHT22;28708;52.224;6.924;2023-04-27T14:36:23;14.20;64.40
43087;DHT22;28708;52.224;6.924;2023-04-27T14:38:49;14.40;64.10
43087;DHT22;28708;52.224;6.924;2023-04-27T14:41:14;14.80;64.70
43087;DHT22;28708;52.224;6.924;2023-04-27T14:43:40;14.90;64.50
43087;DHT22;28708;52.224;6.924;2023-04-27T14:46:06;14.90;65.50
43087;DHT22;28708;52.224;6.924;2023-04-27T14:48:32;15.00;65.20
43087;DHT22;28708;52.224;6.924;2023-04-27T14:50:57;14.90;64.80
43087;DHT22;28708;52.224;6.924;2023-04-27T14:53:23;14.40;64.00
43087;DHT22;28708;52.224;6.924;2023-04-27T14:55:49;14.60;65.60
43087;DHT22;28708;52.224;6.924;2023-04-27T14:58:15;14.70;67.10
43087;DHT22;28708;52.224;6.924;2023-04-27T15:00:41;14.70;66.40
43087;DHT22;28708;52.224;6.924;2023-04-27T15:03:07;14.50;66.60
43087;DHT22;28708;52.224;6.924;2023-04-27T15:05:33;14.50;67.30
43087;DHT22;28708;52.224;6.924;2023-04-27T15:07:58;14.40;69.70
43087;DHT22;28708;52.224;6.924;2023-04-27T15:10:25;14.60;69.20
43087;DHT22;28708;52.224;6.924;2023-04-27T15:12:51;14.50;67.90
43087;DHT22;28708;52.224;6.924;2023-04-27T15:15:17;14.30;68.20
43087;DHT22;28708;52.224;6.924;2023-04-27T15:17:42;14.30;69.50
43087;DHT22;28708;52.224;6.924;2023-04-27T15:20:08;14.20;67.50
43087;DHT22;28708;52.224;6.924;2023-04-27T15:22:35;14.20;67.50
43087;DHT22;28708;52.224;6.924;2023-04-27T15:25:01;14.00;68.90
43087;DHT22;28708;52.224;6.924;2023-04-27T15:27:27;14.10;67.70
43087;DHT22;28708;52.224;6.924;2023-04-27T15:29:53;14.20;71.60
43087;DHT22;28708;52.224;6.924;2023-04-27T15:32:19;14.20;68.90
43087;DHT22;28708;52.224;6.924;2023-04-27T15:34:48;14.10;70.10
43087;DHT22;28708;52.224;6.924;2023-04-27T15:37:14;13.90;68.50
43087;DHT22;28708;52.224;6.924;2023-04-27T15:39:40;14.10;69.50
43087;DHT22;28708;52.224;6.924;2023-04-27T15:42:06;14.10;69.50
43087;DHT22;28708;52.224;6.924;2023-04-27T15:44:32;14.10;69.10